createdAt,value
2022-09-22T00:01:19.589Z,100.00
2022-09-22T00:03:52.432Z,100.00
2022-09-22T00:06:28.076Z,100.00
2022-09-22T00:08:57.733Z,100.00
2022-09-22T00:11:33.351Z,100.00
2022-09-22T00:14:12.365Z,100.00
2022-09-22T00:16:56.016Z,100.00
2022-09-22T00:19:34.373Z,100.00
2022-09-22T00:22:01.423Z,100.00
2022-09-22T00:24:28.764Z,100.00
2022-09-22T00:26:57.417Z,100.00
2022-09-22T00:29:28.973Z,100.00
2022-09-22T00:31:56.617Z,100.00
2022-09-22T00:34:25.929Z,100.00
2022-09-22T00:36:52.548Z,100.00
2022-09-22T00:39:19.302Z,100.00
2022-09-22T00:41:49.577Z,100.00
2022-09-22T00:44:15.860Z,100.00
2022-09-22T00:46:44.652Z,100.00
2022-09-22T00:49:13.937Z,100.00
2022-09-22T00:51:43.272Z,100.00
2022-09-22T00:54:14.197Z,100.00
2022-09-22T00:57:08.034Z,100.00
2022-09-22T00:59:35.995Z,100.00
2022-09-22T01:02:02.447Z,100.00
2022-09-22T01:04:29.810Z,100.00
2022-09-22T01:06:58.728Z,100.00
2022-09-22T01:09:25.802Z,100.00
2022-09-22T01:11:52.888Z,100.00
2022-09-22T01:14:48.702Z,100.00
2022-09-22T01:18:11.238Z,100.00
2022-09-22T01:21:10.981Z,100.00
2022-09-22T01:23:56.038Z,100.00
2022-09-22T01:26:42.542Z,100.00
2022-09-22T01:32:17.126Z,100.00
2022-09-22T01:34:58.757Z,100.00
2022-09-22T01:37:39.561Z,100.00
2022-09-22T01:40:20.215Z,100.00
2022-09-22T01:43:09.277Z,100.00
2022-09-22T01:45:38.853Z,100.00
2022-09-22T01:48:13.503Z,100.00
2022-09-22T01:50:44.985Z,100.00
2022-09-22T01:53:15.149Z,100.00
2022-09-22T01:55:47.340Z,100.00
2022-09-22T01:58:18.505Z,100.00
2022-09-22T02:00:52.003Z,100.00
2022-09-22T02:03:25.650Z,100.00
2022-09-22T02:06:02.507Z,100.00
2022-09-22T02:08:39.889Z,100.00
2022-09-22T02:11:13.916Z,100.00
2022-09-22T02:13:41.617Z,100.00
2022-09-22T02:16:08.633Z,100.00
2022-09-22T02:18:50.201Z,100.00
2022-09-22T02:21:17.332Z,100.00
2022-09-22T02:23:45.117Z,100.00
2022-09-22T02:26:15.341Z,100.00
2022-09-22T02:28:43.924Z,100.00
2022-09-22T02:31:21.161Z,100.00
2022-09-22T02:33:49.749Z,100.00
2022-09-22T02:36:37.669Z,100.00
2022-09-22T02:39:35.148Z,100.00
2022-09-22T02:42:20.559Z,100.00
2022-09-22T02:45:16.394Z,100.00
2022-09-22T02:47:57.190Z,100.00
2022-09-22T02:50:26.947Z,100.00
2022-09-22T02:52:58.746Z,100.00
2022-09-22T02:55:25.351Z,100.00
2022-09-22T02:57:51.711Z,100.00
2022-09-22T03:00:18.100Z,100.00
2022-09-22T03:02:44.491Z,100.00
2022-09-22T03:05:10.920Z,100.00
2022-09-22T03:07:37.404Z,100.00
2022-09-22T03:10:04.606Z,100.00
2022-09-22T03:12:31.037Z,100.00
2022-09-22T03:14:57.449Z,100.00
2022-09-22T03:17:23.822Z,100.00
2022-09-22T03:19:50.190Z,100.00
2022-09-22T03:22:16.595Z,100.00
2022-09-22T03:24:43.059Z,100.00
2022-09-22T03:27:09.435Z,100.00
2022-09-22T03:29:35.902Z,100.00
2022-09-22T03:32:02.419Z,100.00
2022-09-22T03:34:28.974Z,100.00
2022-09-22T03:36:55.314Z,100.00
2022-09-22T03:39:21.661Z,100.00
2022-09-22T03:41:48.147Z,100.00
2022-09-22T03:44:14.503Z,100.00
2022-09-22T03:46:40.845Z,100.00
2022-09-22T03:49:07.207Z,100.00
2022-09-22T03:51:34.232Z,100.00
2022-09-22T03:54:00.929Z,100.00
2022-09-22T03:56:27.419Z,100.00
2022-09-22T03:58:53.790Z,100.00
2022-09-22T04:01:20.208Z,100.00
2022-09-22T04:03:46.705Z,100.00
2022-09-22T04:06:13.420Z,100.00
2022-09-22T04:08:39.815Z,100.00
2022-09-22T04:11:06.822Z,100.00
2022-09-22T04:13:34.238Z,100.00
2022-09-22T04:16:01.335Z,100.00
2022-09-22T04:18:29.413Z,100.00
2022-09-22T04:20:58.080Z,100.00
2022-09-22T04:23:26.044Z,100.00
2022-09-22T04:25:53.171Z,100.00
2022-09-22T04:28:19.542Z,100.00
2022-09-22T04:30:46.993Z,100.00
2022-09-22T04:33:13.495Z,100.00
2022-09-22T04:35:39.934Z,100.00
2022-09-22T04:38:06.390Z,100.00
2022-09-22T04:40:33.789Z,100.00
2022-09-22T04:43:00.248Z,100.00
2022-09-22T04:45:26.763Z,100.00
2022-09-22T04:47:53.577Z,100.00
2022-09-22T04:50:22.349Z,100.00
2022-09-22T04:52:52.211Z,100.00
2022-09-22T04:55:19.008Z,100.00
2022-09-22T04:57:49.504Z,100.00
2022-09-22T05:00:17.164Z,100.00
2022-09-22T05:02:43.797Z,100.00
2022-09-22T05:05:10.444Z,100.00
2022-09-22T05:07:41.589Z,100.00
2022-09-22T05:10:08.511Z,100.00
2022-09-22T05:12:39.121Z,100.00
2022-09-22T05:15:06.388Z,100.00
2022-09-22T05:17:33.494Z,100.00
2022-09-22T05:19:59.881Z,100.00
2022-09-22T05:22:26.244Z,100.00
2022-09-22T05:24:52.605Z,100.00
2022-09-22T05:27:18.980Z,100.00
2022-09-22T05:29:45.357Z,100.00
2022-09-22T05:32:11.766Z,100.00
2022-09-22T05:34:38.138Z,100.00
2022-09-22T05:37:04.518Z,100.00
2022-09-22T05:39:30.933Z,100.00
2022-09-22T05:41:57.341Z,100.00
2022-09-22T05:44:23.785Z,100.00
2022-09-22T05:46:50.191Z,100.00
2022-09-22T05:49:16.607Z,100.00
2022-09-22T05:51:43.309Z,100.00
2022-09-22T05:54:10.080Z,100.00
2022-09-22T05:56:36.489Z,100.00
2022-09-22T05:59:02.855Z,100.00
2022-09-22T06:01:29.315Z,100.00
2022-09-22T06:03:55.716Z,100.00
2022-09-22T06:06:22.127Z,100.00
2022-09-22T06:08:49.308Z,100.00
2022-09-22T06:11:15.781Z,100.00
2022-09-22T06:13:42.147Z,100.00
2022-09-22T06:16:08.565Z,100.00
2022-09-22T06:18:34.973Z,100.00
2022-09-22T06:21:01.379Z,100.00
2022-09-22T06:23:27.806Z,100.00
2022-09-22T06:25:58.552Z,100.00
2022-09-22T06:28:25.304Z,100.00
2022-09-22T06:30:52.000Z,100.00
2022-09-22T06:33:18.793Z,100.00
2022-09-22T06:35:46.198Z,100.00
2022-09-22T06:38:15.263Z,100.00
2022-09-22T06:40:42.794Z,100.00
2022-09-22T06:43:22.720Z,100.00
2022-09-22T06:45:51.228Z,100.00
2022-09-22T06:48:18.509Z,100.00
2022-09-22T06:50:53.365Z,100.00
2022-09-22T06:53:23.251Z,100.00
2022-09-22T06:55:53.703Z,100.00
2022-09-22T06:58:22.073Z,100.00
2022-09-22T07:00:49.000Z,100.00
2022-09-22T07:03:20.905Z,100.00
2022-09-22T07:06:01.904Z,100.00
2022-09-22T07:08:33.776Z,100.00
2022-09-22T07:11:08.067Z,100.00
2022-09-22T07:13:39.845Z,100.00
2022-09-22T07:16:09.672Z,100.00
2022-09-22T07:18:40.201Z,100.00
2022-09-22T07:21:09.085Z,100.00
2022-09-22T07:23:36.161Z,100.00
2022-09-22T07:26:04.712Z,100.00
2022-09-22T07:28:33.015Z,100.00
2022-09-22T07:31:11.533Z,100.00
2022-09-22T07:33:39.886Z,100.00
2022-09-22T07:36:12.429Z,100.00
2022-09-22T07:38:40.276Z,100.00
2022-09-22T07:41:09.881Z,100.00
2022-09-22T07:43:36.318Z,100.00
2022-09-22T07:46:02.743Z,100.00
2022-09-22T07:48:48.203Z,100.00
2022-09-22T07:51:21.551Z,100.00
2022-09-22T07:54:07.255Z,100.00
2022-09-22T07:56:36.516Z,100.00
2022-09-22T07:59:09.787Z,100.00
2022-09-22T08:01:55.051Z,100.00
2022-09-22T08:04:26.367Z,100.00
2022-09-22T08:06:55.516Z,100.00
2022-09-22T08:09:22.951Z,100.00
2022-09-22T08:11:50.048Z,100.00
2022-09-22T08:14:17.488Z,100.00
2022-09-22T08:16:45.774Z,100.00
2022-09-22T08:19:13.515Z,100.00
2022-09-22T08:21:48.780Z,100.00
2022-09-22T08:24:21.400Z,100.00
2022-09-22T08:26:52.678Z,100.00
2022-09-22T08:29:19.650Z,100.00
2022-09-22T08:31:47.463Z,100.00
2022-09-22T08:34:16.270Z,100.00
2022-09-22T08:36:46.396Z,100.00
2022-09-22T08:39:13.017Z,100.00
2022-09-22T08:41:48.435Z,100.00
2022-09-22T08:44:24.496Z,100.00
2022-09-22T08:46:53.342Z,100.00
2022-09-22T08:49:45.859Z,100.00
2022-09-22T08:52:42.424Z,100.00
2022-09-22T08:55:26.509Z,100.00
2022-09-22T08:58:09.093Z,100.00
2022-09-22T09:01:22.162Z,100.00
2022-09-22T09:04:15.401Z,100.00
2022-09-22T09:07:04.037Z,100.00
2022-09-22T09:09:43.543Z,100.00
2022-09-22T09:12:26.898Z,100.00
2022-09-22T09:15:13.754Z,100.00
2022-09-22T09:17:42.484Z,100.00
2022-09-22T09:20:26.397Z,100.00
2022-09-22T09:22:57.530Z,100.00
2022-09-22T09:25:31.383Z,100.00
2022-09-22T09:28:01.765Z,100.00
2022-09-22T09:30:39.800Z,100.00
2022-09-22T09:33:17.948Z,100.00
2022-09-22T09:35:52.943Z,100.00
2022-09-22T09:38:44.746Z,100.00
2022-09-22T09:41:20.627Z,100.00
2022-09-22T09:43:47.416Z,100.00
2022-09-22T09:46:38.694Z,100.00
2022-09-22T09:49:14.923Z,100.00
2022-09-22T09:51:44.807Z,100.00
2022-09-22T09:54:16.908Z,100.00
2022-09-22T09:57:08.233Z,100.00
2022-09-22T09:59:59.996Z,100.00
2022-09-22T10:02:33.212Z,100.00
2022-09-22T10:05:07.567Z,100.00
2022-09-22T10:07:44.391Z,100.00
2022-09-22T10:10:28.806Z,100.00
2022-09-22T10:13:04.391Z,100.00
2022-09-22T10:15:36.825Z,100.00
2022-09-22T10:18:23.945Z,100.00
2022-09-22T10:21:18.283Z,95.44
2022-09-22T10:23:46.814Z,100.00
2022-09-22T10:26:16.770Z,100.00
2022-09-22T10:28:43.211Z,97.76
2022-09-22T10:31:22.245Z,85.00
2022-09-22T10:33:58.178Z,88.51
2022-09-22T10:36:27.006Z,93.81
2022-09-22T10:38:58.856Z,93.13
2022-09-22T10:41:34.084Z,85.08
2022-09-22T10:44:27.440Z,88.17
2022-09-22T10:47:26.943Z,77.46
2022-09-22T10:50:12.543Z,75.32
2022-09-22T10:53:10.661Z,72.32
2022-09-22T10:55:55.748Z,67.95
2022-09-22T10:58:40.905Z,66.80
2022-09-22T11:01:23.891Z,70.27
2022-09-22T11:03:53.066Z,68.35
2022-09-22T11:07:17.123Z,56.43
2022-09-22T11:10:40.213Z,52.64
2022-09-22T11:13:12.497Z,55.27
2022-09-22T11:15:56.434Z,49.10
2022-09-22T11:18:43.257Z,51.78
2022-09-22T11:21:34.798Z,50.38
2022-09-22T11:24:28.062Z,47.48
2022-09-22T11:26:57.261Z,50.11
2022-09-22T11:29:46.802Z,47.87
2022-09-22T11:32:22.177Z,45.49
2022-09-22T11:35:02.220Z,44.13
2022-09-22T11:37:46.854Z,45.10
2022-09-22T11:40:35.974Z,43.95
2022-09-22T11:43:29.904Z,43.20
2022-09-22T11:46:27.431Z,43.48
2022-09-22T11:49:23.088Z,43.13
2022-09-22T11:52:02.437Z,42.43
2022-09-22T11:55:06.397Z,42.19
2022-09-22T11:57:38.056Z,44.14
2022-09-22T12:00:13.117Z,43.08
2022-09-22T12:02:48.944Z,44.14
2022-09-22T12:05:39.903Z,40.50
2022-09-22T12:08:27.871Z,42.80
2022-09-22T12:10:55.793Z,43.11
2022-09-22T12:13:25.494Z,42.26
2022-09-22T12:16:22.409Z,40.72
2022-09-22T12:19:17.000Z,40.84
2022-09-22T12:22:23.103Z,39.95
2022-09-22T12:24:49.568Z,41.47
2022-09-22T12:27:24.964Z,40.64
2022-09-22T12:29:56.659Z,41.85
2022-09-22T12:32:26.296Z,42.01
2022-09-22T12:34:57.580Z,41.30
2022-09-22T12:37:30.973Z,41.39
2022-09-22T12:40:19.220Z,40.56
2022-09-22T12:42:51.125Z,41.42
2022-09-22T12:45:25.175Z,40.89
2022-09-22T12:47:54.500Z,41.59
2022-09-22T12:50:23.940Z,40.53
2022-09-22T12:52:50.576Z,41.00
2022-09-22T12:55:28.739Z,38.71
2022-09-22T12:57:57.807Z,40.24
2022-09-22T13:00:35.681Z,40.29
2022-09-22T13:03:24.722Z,39.62
2022-09-22T13:05:53.412Z,40.66
2022-09-22T13:08:26.123Z,39.81
2022-09-22T13:11:03.329Z,40.02
2022-09-22T13:13:29.673Z,40.17
2022-09-22T13:15:59.755Z,40.22
2022-09-22T13:18:33.499Z,39.86
2022-09-22T13:21:11.870Z,38.98
2022-09-22T13:24:02.661Z,37.60
2022-09-22T13:26:38.960Z,39.76
2022-09-22T13:29:18.217Z,38.16
2022-09-22T13:31:52.848Z,38.69
2022-09-22T13:34:35.293Z,37.63
2022-09-22T13:37:13.230Z,37.95
2022-09-22T13:39:47.103Z,39.12
2022-09-22T13:42:22.276Z,38.55
2022-09-22T13:44:57.415Z,37.82
2022-09-22T13:47:25.200Z,38.40
2022-09-22T13:49:54.930Z,38.02
2022-09-22T13:52:24.823Z,37.46
2022-09-22T13:55:16.628Z,36.58
2022-09-22T13:57:43.128Z,37.08
2022-09-22T14:00:20.698Z,36.84
2022-09-22T14:02:47.205Z,37.26
2022-09-22T14:05:23.453Z,36.59
2022-09-22T14:08:10.728Z,37.14
2022-09-22T14:10:38.093Z,36.95
2022-09-22T14:13:04.511Z,37.07
2022-09-22T14:15:43.745Z,36.25
2022-09-22T14:18:28.011Z,35.56
2022-09-22T14:20:57.256Z,36.92
2022-09-22T14:23:30.455Z,36.19
2022-09-22T14:25:58.908Z,36.99
2022-09-22T14:28:29.054Z,36.40
2022-09-22T14:30:56.037Z,36.43
2022-09-22T14:33:27.081Z,35.73
2022-09-22T14:36:02.923Z,34.29
2022-09-22T14:38:34.273Z,35.12
2022-09-22T14:41:02.781Z,34.98
2022-09-22T14:43:37.072Z,34.47
2022-09-22T14:46:21.833Z,33.76
2022-09-22T14:48:48.395Z,34.35
2022-09-22T14:51:21.979Z,34.59
2022-09-22T14:53:53.513Z,33.90
2022-09-22T14:56:27.666Z,33.71
2022-09-22T14:59:00.836Z,33.01
2022-09-22T15:01:50.099Z,33.54
2022-09-22T15:04:26.359Z,32.53
2022-09-22T15:06:58.954Z,33.66
2022-09-22T15:09:31.883Z,32.73
2022-09-22T15:12:01.807Z,33.05
2022-09-22T15:14:34.138Z,32.57
2022-09-22T15:17:20.409Z,33.14
2022-09-22T15:19:57.059Z,32.32
2022-09-22T15:22:24.441Z,33.32
2022-09-22T15:24:51.327Z,33.56
2022-09-22T15:27:17.757Z,33.43
2022-09-22T15:29:45.609Z,33.59
2022-09-22T15:32:12.879Z,33.77
2022-09-22T15:34:44.767Z,34.16
2022-09-22T15:37:19.273Z,34.62
2022-09-22T15:39:46.038Z,34.28
2022-09-22T15:42:12.627Z,34.89
2022-09-22T15:44:39.311Z,35.66
2022-09-22T15:47:06.476Z,35.89
2022-09-22T15:49:34.990Z,35.97
2022-09-22T15:52:04.821Z,36.19
2022-09-22T15:54:31.585Z,35.97
2022-09-22T15:56:59.859Z,36.30
2022-09-22T15:59:32.188Z,36.13
2022-09-22T16:02:00.502Z,36.87
2022-09-22T16:04:34.126Z,36.68
2022-09-22T16:07:05.652Z,37.24
2022-09-22T16:09:32.058Z,37.76
2022-09-22T16:11:58.998Z,37.45
2022-09-22T16:14:25.440Z,37.14
2022-09-22T16:16:52.231Z,37.46
2022-09-22T16:19:18.653Z,37.57
2022-09-22T16:21:54.167Z,37.29
2022-09-22T16:24:22.437Z,37.49
2022-09-22T16:26:49.649Z,37.80
2022-09-22T16:29:16.484Z,37.80
2022-09-22T16:31:42.931Z,37.73
2022-09-22T16:34:09.495Z,38.27
2022-09-22T16:36:36.409Z,37.69
2022-09-22T16:39:04.002Z,37.42
2022-09-22T16:41:35.134Z,37.52
2022-09-22T16:44:02.620Z,37.55
2022-09-22T16:46:31.450Z,37.50
2022-09-22T16:49:12.708Z,37.60
2022-09-22T16:51:41.795Z,37.73
2022-09-22T16:54:13.602Z,37.94
2022-09-22T16:56:43.070Z,38.17
2022-09-22T16:59:10.030Z,39.07
2022-09-22T17:01:37.962Z,40.15
2022-09-22T17:04:06.028Z,41.40
2022-09-22T17:06:32.804Z,42.68
2022-09-22T17:08:59.452Z,43.12
2022-09-22T17:11:29.731Z,43.94
2022-09-22T17:14:01.380Z,45.48
2022-09-22T17:16:30.385Z,46.60
2022-09-22T17:19:03.114Z,49.07
2022-09-22T17:21:34.229Z,49.00
2022-09-22T17:24:01.817Z,49.99
2022-09-22T17:26:29.504Z,51.55
2022-09-22T17:28:56.469Z,52.39
2022-09-22T17:31:23.634Z,53.48
2022-09-22T17:33:52.344Z,55.01
2022-09-22T17:36:21.067Z,55.41
2022-09-22T17:38:50.672Z,56.30
2022-09-22T17:41:21.883Z,57.58
2022-09-22T17:43:53.143Z,59.87
2022-09-22T17:46:20.527Z,61.82
2022-09-22T17:49:05.887Z,61.68
2022-09-22T17:51:56.733Z,64.55
2022-09-22T17:54:45.835Z,66.83
2022-09-22T17:57:15.038Z,66.92
2022-09-22T17:59:41.840Z,67.46
2022-09-22T18:02:11.120Z,67.96
2022-09-22T18:04:41.101Z,69.11
2022-09-22T18:07:09.635Z,69.96
2022-09-22T18:09:38.298Z,71.05
2022-09-22T18:12:06.886Z,72.41
2022-09-22T18:14:39.115Z,73.31
2022-09-22T18:17:06.612Z,73.38
2022-09-22T18:19:36.784Z,73.76
2022-09-22T18:22:06.136Z,73.58
2022-09-22T18:24:33.641Z,75.49
2022-09-22T18:27:03.911Z,77.04
2022-09-22T18:29:32.024Z,77.39
2022-09-22T18:31:59.733Z,78.09
2022-09-22T18:34:31.719Z,79.00
2022-09-22T18:37:04.041Z,81.38
2022-09-22T18:39:35.134Z,81.27
2022-09-22T18:42:01.658Z,81.44
2022-09-22T18:44:30.585Z,82.60
2022-09-22T18:47:01.168Z,82.97
2022-09-22T18:49:31.841Z,83.62
2022-09-22T18:52:00.276Z,84.27
2022-09-22T18:54:29.388Z,85.13
2022-09-22T18:56:56.559Z,86.48
2022-09-22T18:59:26.064Z,87.21
2022-09-22T19:01:53.539Z,87.47
2022-09-22T19:04:22.806Z,88.18
2022-09-22T19:07:15.413Z,92.04
2022-09-22T19:09:42.562Z,90.62
2022-09-22T19:12:10.288Z,90.88
2022-09-22T19:14:39.637Z,90.20
2022-09-22T19:17:11.929Z,92.03
2022-09-22T19:19:42.366Z,90.40
2022-09-22T19:22:10.488Z,91.88
2022-09-22T19:24:38.850Z,91.69
2022-09-22T19:27:06.753Z,92.81
2022-09-22T19:29:33.412Z,94.51
2022-09-22T19:32:01.065Z,94.65
2022-09-22T19:34:28.519Z,94.80
2022-09-22T19:36:55.898Z,96.89
2022-09-22T19:39:23.485Z,96.17
2022-09-22T19:41:50.925Z,97.55
2022-09-22T19:44:19.660Z,98.20
2022-09-22T19:46:47.673Z,99.78
2022-09-22T19:49:15.655Z,99.04
2022-09-22T19:51:42.635Z,99.32
2022-09-22T19:54:09.689Z,99.20
2022-09-22T19:56:36.184Z,100.00
2022-09-22T19:59:04.563Z,100.00
2022-09-22T20:01:33.765Z,100.00
2022-09-22T20:04:00.353Z,100.00
2022-09-22T20:06:27.863Z,100.00
2022-09-22T20:09:02.754Z,100.00
2022-09-22T20:11:34.459Z,100.00
2022-09-22T20:14:19.898Z,100.00
2022-09-22T20:16:59.655Z,100.00
2022-09-22T20:19:27.246Z,100.00
2022-09-22T20:22:20.978Z,100.00
2022-09-22T20:24:53.867Z,100.00
2022-09-22T20:27:22.857Z,100.00
2022-09-22T20:29:52.128Z,100.00
2022-09-22T20:32:23.812Z,100.00
2022-09-22T20:34:51.211Z,100.00
2022-09-22T20:37:17.640Z,100.00
2022-09-22T20:39:44.262Z,100.00
2022-09-22T20:42:13.473Z,100.00
2022-09-22T20:44:43.466Z,100.00
2022-09-22T20:47:14.124Z,100.00
2022-09-22T20:49:45.039Z,100.00
2022-09-22T20:52:15.783Z,100.00
2022-09-22T20:54:46.276Z,100.00
2022-09-22T20:57:14.014Z,100.00
2022-09-22T20:59:40.405Z,100.00
2022-09-22T21:02:07.203Z,100.00
2022-09-22T21:04:34.048Z,100.00
2022-09-22T21:07:00.540Z,100.00
2022-09-22T21:09:45.672Z,100.00
2022-09-22T21:12:13.409Z,100.00
2022-09-22T21:14:39.752Z,100.00
2022-09-22T21:17:09.002Z,100.00
2022-09-22T21:19:36.468Z,100.00
2022-09-22T21:22:03.452Z,100.00
2022-09-22T21:24:31.128Z,100.00
2022-09-22T21:26:57.481Z,100.00
2022-09-22T21:29:23.928Z,100.00
2022-09-22T21:31:50.527Z,100.00
2022-09-22T21:34:18.340Z,100.00
2022-09-22T21:36:45.137Z,100.00
2022-09-22T21:39:11.822Z,100.00
2022-09-22T21:41:38.274Z,100.00
2022-09-22T21:44:05.769Z,100.00
2022-09-22T21:46:33.285Z,100.00
2022-09-22T21:49:02.068Z,100.00
2022-09-22T21:51:31.044Z,100.00
2022-09-22T21:53:57.435Z,100.00
2022-09-22T21:56:25.704Z,100.00
2022-09-22T21:58:54.398Z,100.00
2022-09-22T22:01:23.563Z,100.00
2022-09-22T22:03:52.043Z,100.00
2022-09-22T22:06:26.629Z,100.00
2022-09-22T22:08:55.433Z,100.00
2022-09-22T22:11:25.656Z,100.00
2022-09-22T22:13:53.911Z,100.00
2022-09-22T22:16:23.358Z,100.00
2022-09-22T22:18:50.278Z,100.00
2022-09-22T22:21:29.336Z,100.00
2022-09-22T22:24:20.314Z,100.00
2022-09-22T22:26:51.973Z,100.00
2022-09-22T22:29:19.688Z,100.00
2022-09-22T22:31:48.952Z,100.00
2022-09-22T22:34:17.919Z,100.00
2022-09-22T22:36:44.271Z,100.00
2022-09-22T22:39:11.562Z,100.00
2022-09-22T22:41:39.322Z,100.00
2022-09-22T22:44:07.082Z,100.00
2022-09-22T22:46:34.125Z,100.00
2022-09-22T22:49:00.878Z,100.00
2022-09-22T22:51:27.510Z,100.00
2022-09-22T22:53:57.632Z,100.00
2022-09-22T22:56:26.681Z,100.00
2022-09-22T22:58:53.692Z,100.00
2022-09-22T23:01:23.085Z,100.00
2022-09-22T23:03:55.728Z,100.00
2022-09-22T23:06:30.302Z,100.00
2022-09-22T23:08:56.812Z,100.00
2022-09-22T23:11:29.830Z,100.00
2022-09-22T23:14:03.093Z,100.00
2022-09-22T23:16:36.075Z,100.00
2022-09-22T23:19:06.744Z,100.00
2022-09-22T23:21:33.959Z,100.00
2022-09-22T23:24:01.167Z,100.00
2022-09-22T23:26:29.684Z,100.00
2022-09-22T23:28:58.485Z,100.00
2022-09-22T23:31:25.426Z,100.00
2022-09-22T23:33:52.547Z,100.00
2022-09-22T23:36:24.307Z,100.00
2022-09-22T23:38:55.463Z,100.00
2022-09-22T23:41:22.009Z,100.00
2022-09-22T23:43:48.357Z,100.00
2022-09-22T23:46:14.800Z,100.00
2022-09-22T23:48:41.320Z,100.00
2022-09-22T23:51:07.695Z,100.00
2022-09-22T23:53:36.578Z,100.00
2022-09-22T23:56:05.556Z,100.00
2022-09-22T23:58:32.673Z,100.00
